createdAt,value
2018-02-11T00:02:16.317Z,42.50
2018-02-11T00:04:43.845Z,41.40
2018-02-11T00:07:11.687Z,38.03
2018-02-11T00:09:39.503Z,40.27
2018-02-11T00:12:07.821Z,42.47
2018-02-11T00:14:35.341Z,39.43
2018-02-11T00:17:02.900Z,41.50
2018-02-11T00:19:30.420Z,39.60
2018-02-11T00:21:58.005Z,42.07
2018-02-11T00:24:25.523Z,40.37
2018-02-11T00:26:53.095Z,42.78
2018-02-11T00:29:20.608Z,40.90
2018-02-11T00:31:48.269Z,43.13
2018-02-11T00:34:15.801Z,43.33
2018-02-11T00:36:50.443Z,41.65
2018-02-11T00:39:18.746Z,42.03
2018-02-11T00:41:46.293Z,40.80
2018-02-11T00:44:13.845Z,38.73
2018-02-11T00:46:41.955Z,40.60
2018-02-11T00:49:10.119Z,42.67
2018-02-11T00:51:37.673Z,39.97
2018-02-11T00:54:05.199Z,38.37
2018-02-11T00:56:33.488Z,39.20
2018-02-11T00:59:01.040Z,39.50
2018-02-11T01:01:28.559Z,38.03
2018-02-11T01:03:56.998Z,39.43
2018-02-11T01:06:24.507Z,40.07
2018-02-11T01:08:52.040Z,38.15
2018-02-11T01:11:19.579Z,39.43
2018-02-11T01:13:47.128Z,40.12
2018-02-11T01:16:14.645Z,39.17
2018-02-11T01:18:42.951Z,40.20
2018-02-11T01:21:10.760Z,39.47
2018-02-11T01:23:39.071Z,38.13
2018-02-11T01:26:07.547Z,40.23
2018-02-11T01:28:35.091Z,39.57
2018-02-11T01:31:02.638Z,38.30
2018-02-11T01:33:30.168Z,39.77
2018-02-11T01:35:57.709Z,38.30
2018-02-11T01:38:25.240Z,38.40
2018-02-11T01:40:52.765Z,39.30
2018-02-11T01:43:21.086Z,37.90
2018-02-11T01:45:48.645Z,37.90
2018-02-11T01:48:16.168Z,36.60
2018-02-11T01:50:43.699Z,36.50
2018-02-11T01:53:11.218Z,38.70
2018-02-11T01:55:38.750Z,37.97
2018-02-11T01:58:06.296Z,36.90
2018-02-11T02:00:34.224Z,38.77
2018-02-11T02:03:01.767Z,37.30
2018-02-11T02:05:30.823Z,39.17
2018-02-11T02:07:58.358Z,37.33
2018-02-11T02:10:25.908Z,38.23
2018-02-11T02:12:53.419Z,35.80
2018-02-11T02:15:20.992Z,37.77
2018-02-11T02:17:48.523Z,37.67
2018-02-11T02:20:16.062Z,36.80
2018-02-11T02:22:43.586Z,37.40
2018-02-11T02:25:12.000Z,36.73
2018-02-11T02:27:39.585Z,38.47
2018-02-11T02:30:08.807Z,39.20
2018-02-11T02:32:36.394Z,38.77
2018-02-11T02:35:03.921Z,37.20
2018-02-11T02:37:31.465Z,37.57
2018-02-11T02:39:58.988Z,39.40
2018-02-11T02:42:26.697Z,39.77
2018-02-11T02:44:54.991Z,38.67
2018-02-11T02:47:22.541Z,37.73
2018-02-11T02:49:50.060Z,37.67
2018-02-11T02:52:17.709Z,37.30
2018-02-11T02:54:45.248Z,37.27
2018-02-11T02:57:12.799Z,38.77
2018-02-11T02:59:41.109Z,41.47
2018-02-11T03:02:10.054Z,36.13
2018-02-11T03:04:37.737Z,37.83
2018-02-11T03:07:05.322Z,36.27
2018-02-11T03:09:33.636Z,38.20
2018-02-11T03:12:01.193Z,37.10
2018-02-11T03:14:28.723Z,36.50
2018-02-11T03:16:56.244Z,36.63
2018-02-11T03:19:23.902Z,36.33
2018-02-11T03:21:51.425Z,36.47
2018-02-11T03:24:19.005Z,39.03
2018-02-11T03:26:46.582Z,38.30
2018-02-11T03:29:14.886Z,37.87
2018-02-11T03:31:42.456Z,38.07
2018-02-11T03:34:10.914Z,37.38
2018-02-11T03:36:38.429Z,37.33
2018-02-11T03:39:05.987Z,39.67
2018-02-11T03:41:33.564Z,39.50
2018-02-11T03:44:01.104Z,38.47
2018-02-11T03:46:28.639Z,38.33
2018-02-11T03:48:56.482Z,38.20
2018-02-11T03:51:24.053Z,36.13
2018-02-11T03:53:53.133Z,37.93
2018-02-11T03:56:20.663Z,36.33
2018-02-11T03:58:48.189Z,38.27
2018-02-11T04:01:15.738Z,38.73
2018-02-11T04:03:43.299Z,37.17
2018-02-11T04:06:10.980Z,40.10
2018-02-11T04:08:39.276Z,37.67
2018-02-11T04:11:06.816Z,38.57
2018-02-11T04:13:34.353Z,35.90
2018-02-11T04:16:01.894Z,35.83
2018-02-11T04:18:29.445Z,36.50
2018-02-11T04:20:57.096Z,38.17
2018-02-11T04:23:24.617Z,38.53
2018-02-11T04:25:52.921Z,36.70
2018-02-11T04:28:20.562Z,36.05
2018-02-11T04:30:48.117Z,38.83
2018-02-11T04:33:15.662Z,37.60
2018-02-11T04:35:43.210Z,38.93
2018-02-11T04:38:11.648Z,39.88
2018-02-11T04:40:39.169Z,39.57
2018-02-11T04:43:07.483Z,37.30
2018-02-11T04:45:35.009Z,38.10
2018-02-11T04:48:02.549Z,38.87
2018-02-11T04:50:30.067Z,38.50
2018-02-11T04:52:58.376Z,38.90
2018-02-11T04:55:26.764Z,36.80
2018-02-11T04:57:54.323Z,40.13
2018-02-11T05:00:22.612Z,38.47
2018-02-11T05:02:50.145Z,38.90
2018-02-11T05:05:19.695Z,39.10
2018-02-11T05:07:47.781Z,38.63
2018-02-11T05:10:16.060Z,36.30
2018-02-11T05:12:44.380Z,38.83
2018-02-11T05:15:13.326Z,37.65
2018-02-11T05:17:41.197Z,38.63
2018-02-11T05:20:08.743Z,37.60
2018-02-11T05:22:36.277Z,38.53
2018-02-11T05:25:03.848Z,37.90
2018-02-11T05:27:33.220Z,38.47
2018-02-11T05:30:00.747Z,39.00
2018-02-11T05:32:28.383Z,36.50
2018-02-11T05:34:55.928Z,38.75
2018-02-11T05:37:23.458Z,38.40
2018-02-11T05:39:51.765Z,37.93
2018-02-11T05:42:19.510Z,37.63
2018-02-11T05:44:47.050Z,37.27
2018-02-11T05:47:14.701Z,37.60
2018-02-11T05:49:43.060Z,38.40
2018-02-11T05:52:10.618Z,38.00
2018-02-11T05:54:38.965Z,39.17
2018-02-11T05:57:06.496Z,36.87
2018-02-11T05:59:34.076Z,38.40
2018-02-11T06:02:01.620Z,36.15
2018-02-11T06:04:29.161Z,37.23
2018-02-11T06:18:31.421Z,35.27
2018-02-11T06:20:58.952Z,33.95
2018-02-11T06:23:26.482Z,36.30
2018-02-11T06:25:54.226Z,35.60
2018-02-11T06:28:21.747Z,36.17
2018-02-11T06:30:49.272Z,35.05
2018-02-11T06:33:16.829Z,37.10
2018-02-11T06:35:44.348Z,34.77
2018-02-11T06:38:12.724Z,33.33
2018-02-11T06:40:41.070Z,33.07
2018-02-11T06:43:09.507Z,34.15
2018-02-11T06:45:37.023Z,36.20
2018-02-11T06:48:04.564Z,33.40
2018-02-11T06:50:32.341Z,35.30
2018-02-11T06:52:59.881Z,30.90
2018-02-11T06:55:27.623Z,32.30
2018-02-11T06:57:55.269Z,33.37
2018-02-11T07:00:22.793Z,33.20
2018-02-11T07:02:51.223Z,31.93
2018-02-11T07:05:18.752Z,32.10
2018-02-11T07:07:46.273Z,31.75
2018-02-11T07:10:13.824Z,30.60
2018-02-11T07:12:41.370Z,31.08
2018-02-11T07:15:09.009Z,29.07
2018-02-11T07:17:36.527Z,28.20
2018-02-11T07:20:04.168Z,29.50
2018-02-11T07:22:31.696Z,30.00
2018-02-11T07:24:59.282Z,29.70
2018-02-11T07:27:26.802Z,28.12
2018-02-11T07:29:54.340Z,29.43
2018-02-11T07:32:21.864Z,26.43
2018-02-11T07:34:50.199Z,29.07
2018-02-11T07:37:17.739Z,26.03
2018-02-11T07:39:45.291Z,25.30
2018-02-11T07:42:12.819Z,26.10
2018-02-11T07:44:40.335Z,25.10
2018-02-11T07:47:07.860Z,26.23
2018-02-11T07:49:37.128Z,21.07
2018-02-11T07:52:05.441Z,23.23
2018-02-11T07:54:32.955Z,21.93
2018-02-11T07:57:00.493Z,21.10
2018-02-11T07:59:28.771Z,23.73
2018-02-11T08:01:56.337Z,20.37
2018-02-11T08:04:23.864Z,20.00
2018-02-11T08:06:51.435Z,21.48
2018-02-11T08:09:19.015Z,21.10
2018-02-11T08:11:46.620Z,19.73
2018-02-11T08:14:14.353Z,19.37
2018-02-11T08:16:42.773Z,19.43
2018-02-11T08:19:10.336Z,20.30
2018-02-11T08:21:38.636Z,18.33
2018-02-11T08:24:06.187Z,18.27
2018-02-11T08:26:33.746Z,20.10
2018-02-11T08:29:01.278Z,18.73
2018-02-11T08:31:28.810Z,18.10
2018-02-11T08:33:56.407Z,18.30
2018-02-11T08:36:24.714Z,17.63
2018-02-11T08:38:52.264Z,16.43
2018-02-11T08:41:19.791Z,17.70
2018-02-11T08:43:47.352Z,17.90
2018-02-11T08:46:14.902Z,18.27
2018-02-11T08:48:43.440Z,16.53
2018-02-11T08:51:10.961Z,18.77
2018-02-11T08:53:38.572Z,16.63
2018-02-11T08:56:06.101Z,18.20
2018-02-11T08:58:33.641Z,16.80
2018-02-11T09:01:01.189Z,17.27
2018-02-11T09:03:28.762Z,16.77
2018-02-11T09:05:56.288Z,16.83
2018-02-11T09:08:23.795Z,17.20
2018-02-11T09:10:51.333Z,16.47
2018-02-11T09:13:18.852Z,15.97
2018-02-11T09:15:46.557Z,16.10
2018-02-11T09:18:14.371Z,16.17
2018-02-11T09:20:41.999Z,15.87
2018-02-11T09:23:09.511Z,16.47
2018-02-11T09:25:37.081Z,15.70
2018-02-11T09:28:05.433Z,13.10
2018-02-11T09:30:32.984Z,15.90
2018-02-11T09:33:00.509Z,13.47
2018-02-11T09:35:28.168Z,14.03
2018-02-11T09:37:55.701Z,15.53
2018-02-11T09:40:23.333Z,14.02
2018-02-11T09:42:50.874Z,14.23
2018-02-11T09:45:18.406Z,13.57
2018-02-11T09:47:45.963Z,13.53
2018-02-11T09:50:13.492Z,12.50
2018-02-11T09:52:41.104Z,12.93
2018-02-11T09:55:09.505Z,12.60
2018-02-11T09:57:37.052Z,12.27
2018-02-11T10:00:04.620Z,11.80
2018-02-11T10:02:32.465Z,12.40
2018-02-11T10:05:00.097Z,12.83
2018-02-11T10:07:27.644Z,11.50
2018-02-11T10:09:55.293Z,12.17
2018-02-11T10:12:22.868Z,11.40
2018-02-11T10:14:50.393Z,11.60
2018-02-11T10:17:20.637Z,11.83
2018-02-11T10:19:50.553Z,13.30
2018-02-11T10:22:19.134Z,10.88
2018-02-11T10:24:46.692Z,10.63
2018-02-11T10:27:15.447Z,11.57
2018-02-11T10:29:43.134Z,11.32
2018-02-11T10:32:10.681Z,11.07
2018-02-11T10:34:38.269Z,12.25
2018-02-11T10:37:06.579Z,12.10
2018-02-11T10:39:34.125Z,11.07
2018-02-11T10:42:01.774Z,11.40
2018-02-11T10:44:29.328Z,10.90
2018-02-11T10:46:56.857Z,10.70
2018-02-11T10:49:24.464Z,11.20
2018-02-11T10:51:52.007Z,10.10
2018-02-11T10:54:20.308Z,10.43
2018-02-11T10:56:47.823Z,11.13
2018-02-11T10:59:15.344Z,10.27
2018-02-11T11:01:43.642Z,10.77
2018-02-11T11:04:12.271Z,10.30
2018-02-11T11:06:39.804Z,9.90
2018-02-11T11:09:07.477Z,10.77
2018-02-11T11:11:35.792Z,11.50
2018-02-11T11:14:03.326Z,10.83
2018-02-11T11:16:31.848Z,11.37
2018-02-11T11:19:00.138Z,11.40
2018-02-11T11:21:28.828Z,11.23
2018-02-11T11:23:56.359Z,11.90
2018-02-11T11:26:23.892Z,11.97
2018-02-11T11:28:51.421Z,11.38
2018-02-11T11:31:20.937Z,10.70
2018-02-11T11:33:48.453Z,10.43
2018-02-11T11:36:16.025Z,11.73
2018-02-11T11:38:43.552Z,11.83
2018-02-11T11:41:11.151Z,12.60
2018-02-11T11:43:38.682Z,11.63
2018-02-11T11:46:06.207Z,11.80
2018-02-11T11:48:33.864Z,11.60
2018-02-11T11:51:01.428Z,12.57
2018-02-11T11:53:28.949Z,11.40
2018-02-11T11:55:56.469Z,11.00
2018-02-11T11:58:24.198Z,10.60
2018-02-11T12:00:52.655Z,12.83
2018-02-11T12:03:21.897Z,12.97
2018-02-11T12:05:49.415Z,12.37
2018-02-11T12:08:16.949Z,11.47
2018-02-11T12:10:44.960Z,11.48
2018-02-11T12:13:12.544Z,12.07
2018-02-11T12:15:40.846Z,10.70
2018-02-11T12:18:08.414Z,10.60
2018-02-11T12:20:36.695Z,11.00
2018-02-11T12:23:05.045Z,10.80
2018-02-11T12:25:33.333Z,9.73
2018-02-11T12:28:01.647Z,10.80
2018-02-11T12:30:29.172Z,11.00
2018-02-11T12:32:56.721Z,11.17
2018-02-11T12:35:24.273Z,11.60
2018-02-11T12:37:51.793Z,11.40
2018-02-11T12:40:19.334Z,10.07
2018-02-11T12:42:46.900Z,11.23
2018-02-11T12:45:14.428Z,11.80
2018-02-11T12:47:41.961Z,11.80
2018-02-11T12:50:09.497Z,12.10
2018-02-11T12:52:37.775Z,11.32
2018-02-11T12:55:05.329Z,11.35
2018-02-11T12:57:32.861Z,12.10
2018-02-11T13:00:00.403Z,13.18
2018-02-11T13:02:27.971Z,13.17
2018-02-11T13:04:55.537Z,13.70
2018-02-11T13:07:23.097Z,12.97
2018-02-11T13:09:50.669Z,12.47
2018-02-11T13:12:18.982Z,13.07
2018-02-11T13:14:46.506Z,12.50
2018-02-11T13:17:14.050Z,13.37
2018-02-11T13:19:41.573Z,12.70
2018-02-11T13:22:10.114Z,13.40
2018-02-11T13:24:38.440Z,13.53
2018-02-11T13:27:06.000Z,12.90
2018-02-11T13:29:33.530Z,11.60
2018-02-11T13:32:01.086Z,11.73
2018-02-11T13:34:28.609Z,12.47
2018-02-11T13:36:56.150Z,12.10
2018-02-11T13:39:23.676Z,13.43
2018-02-11T13:41:51.280Z,12.73
2018-02-11T13:44:18.801Z,12.57
2018-02-11T13:46:46.432Z,13.30
2018-02-11T13:49:13.992Z,12.93
2018-02-11T13:51:41.504Z,13.20
2018-02-11T13:54:09.061Z,13.80
2018-02-11T13:56:36.583Z,12.30
2018-02-11T13:59:04.107Z,13.13
2018-02-11T14:01:32.619Z,14.53
2018-02-11T14:04:00.574Z,13.80
2018-02-11T14:06:28.528Z,13.70
2018-02-11T14:08:56.481Z,13.37
2018-02-11T14:11:25.254Z,14.27
2018-02-11T14:13:53.311Z,13.70
2018-02-11T14:16:21.878Z,14.57
2018-02-11T14:18:49.730Z,13.87
2018-02-11T14:21:17.350Z,14.90
2018-02-11T14:23:44.899Z,15.00
2018-02-11T14:26:12.691Z,15.23
2018-02-11T14:28:41.005Z,14.40
2018-02-11T14:31:08.549Z,15.87
2018-02-11T14:33:36.132Z,15.07
2018-02-11T14:36:03.652Z,14.63
2018-02-11T14:38:31.186Z,14.80
2018-02-11T14:40:58.728Z,15.17
2018-02-11T14:43:26.260Z,14.63
2018-02-11T14:45:54.578Z,14.80
2018-02-11T14:48:22.099Z,16.13
2018-02-11T14:50:49.641Z,15.23
2018-02-11T14:53:17.191Z,15.53
2018-02-11T14:55:44.736Z,15.77
2018-02-11T14:58:12.265Z,15.80
2018-02-11T15:00:39.808Z,15.95
2018-02-11T15:03:07.371Z,16.13
2018-02-11T15:05:34.917Z,15.95
2018-02-11T15:08:02.437Z,15.57
2018-02-11T15:10:29.976Z,15.57
2018-02-11T15:12:57.497Z,16.40
2018-02-11T15:15:25.145Z,16.55
2018-02-11T15:17:53.463Z,16.37
2018-02-11T15:20:20.981Z,14.90
2018-02-11T15:22:48.512Z,16.37
2018-02-11T15:25:16.104Z,15.63
2018-02-11T15:27:43.648Z,16.37
2018-02-11T15:30:11.297Z,15.20
2018-02-11T15:32:38.841Z,14.70
2018-02-11T15:35:06.352Z,15.43
2018-02-11T15:37:33.885Z,16.87
2018-02-11T15:40:01.424Z,16.13
2018-02-11T15:42:29.736Z,15.93
2018-02-11T15:44:57.268Z,15.50
2018-02-11T15:47:25.805Z,15.53
2018-02-11T15:49:53.326Z,16.47
2018-02-11T15:52:20.929Z,14.10
2018-02-11T15:54:48.457Z,15.20
2018-02-11T15:57:16.008Z,14.55
2018-02-11T15:59:43.515Z,13.90
2018-02-11T16:02:11.807Z,14.48
2018-02-11T16:04:39.367Z,15.07
2018-02-11T16:07:06.883Z,14.80
2018-02-11T16:09:34.413Z,13.70
2018-02-11T16:12:01.933Z,13.77
2018-02-11T16:14:30.298Z,13.98
2018-02-11T16:16:57.807Z,13.80
2018-02-11T16:19:27.792Z,13.30
2018-02-11T16:21:55.344Z,13.37
2018-02-11T16:24:22.873Z,13.47
2018-02-11T16:26:50.410Z,12.60
2018-02-11T16:29:18.007Z,13.03
2018-02-11T16:31:46.290Z,13.73
2018-02-11T16:34:14.937Z,13.00
2018-02-11T16:36:43.304Z,13.53
2018-02-11T16:39:10.910Z,11.70
2018-02-11T16:41:39.292Z,12.23
2018-02-11T16:44:06.855Z,12.97
2018-02-11T16:46:34.389Z,10.93
2018-02-11T16:49:01.924Z,11.60
2018-02-11T16:51:29.562Z,11.93
2018-02-11T16:53:57.374Z,11.63
2018-02-11T16:56:25.893Z,12.57
2018-02-11T16:58:53.403Z,13.93
2018-02-11T17:01:20.949Z,11.60
2018-02-11T17:03:48.475Z,10.90
2018-02-11T17:06:16.032Z,11.30
2018-02-11T17:08:43.548Z,12.00
2018-02-11T17:11:11.841Z,12.93
2018-02-11T17:13:39.361Z,12.17
2018-02-11T17:16:06.955Z,13.02
2018-02-11T17:18:34.472Z,13.57
2018-02-11T17:21:02.923Z,12.40
2018-02-11T17:23:30.453Z,11.63
2018-02-11T17:25:58.765Z,11.47
2018-02-11T17:28:26.292Z,10.63
2018-02-11T17:30:53.823Z,10.67
2018-02-11T17:33:21.372Z,10.07
2018-02-11T17:35:48.941Z,9.87
2018-02-11T17:38:16.487Z,10.90
2018-02-11T17:40:44.010Z,9.50
2018-02-11T17:43:11.557Z,9.40
2018-02-11T17:45:39.077Z,10.03
2018-02-11T17:48:07.394Z,10.60
2018-02-11T17:50:34.930Z,11.03
2018-02-11T17:53:02.533Z,9.33
2018-02-11T17:55:30.112Z,9.20
2018-02-11T17:57:57.650Z,10.90
2018-02-11T18:00:25.178Z,11.00
2018-02-11T18:02:52.737Z,10.27
2018-02-11T18:05:20.255Z,10.50
2018-02-11T18:07:48.559Z,10.33
2018-02-11T18:10:16.083Z,10.03
2018-02-11T18:12:43.595Z,9.83
2018-02-11T18:15:11.887Z,9.83
2018-02-11T18:17:39.399Z,9.20
2018-02-11T18:20:07.707Z,9.70
2018-02-11T18:22:35.233Z,9.33
2018-02-11T18:25:03.545Z,9.07
2018-02-11T18:27:31.066Z,8.50
2018-02-11T18:29:58.627Z,9.70
2018-02-11T18:32:26.149Z,9.30
2018-02-11T18:34:53.688Z,9.47
2018-02-11T18:37:21.308Z,9.53
2018-02-11T18:39:48.872Z,9.00
2018-02-11T18:42:16.392Z,9.50
2018-02-11T18:44:43.972Z,9.40
2018-02-11T18:47:11.493Z,10.00
2018-02-11T18:49:39.024Z,9.87
2018-02-11T18:52:06.548Z,9.73
2018-02-11T18:54:34.852Z,8.63
2018-02-11T18:57:02.380Z,9.23
2018-02-11T18:59:30.214Z,9.38
2018-02-11T19:01:58.499Z,9.60
2018-02-11T19:04:26.025Z,9.27
2018-02-11T19:06:54.372Z,9.40
2018-02-11T19:09:22.653Z,9.37
2018-02-11T19:11:50.388Z,9.80
2018-02-11T19:14:18.712Z,8.60
2018-02-11T19:16:46.258Z,8.70
2018-02-11T19:19:13.787Z,8.55
2018-02-11T19:21:41.638Z,8.07
2018-02-11T19:24:09.199Z,8.43
2018-02-11T19:26:36.813Z,8.63
2018-02-11T19:29:05.813Z,8.13
2018-02-11T19:31:33.352Z,8.10
2018-02-11T19:34:00.864Z,7.90
2018-02-11T19:36:28.399Z,8.47
2018-02-11T19:38:56.193Z,8.70
2018-02-11T19:41:23.729Z,8.70
2018-02-11T19:43:51.277Z,7.53
2018-02-11T19:46:18.823Z,7.67
2018-02-11T19:48:46.381Z,7.70
2018-02-11T19:51:13.910Z,8.87
2018-02-11T19:53:41.449Z,9.37
2018-02-11T19:56:08.979Z,11.70
2018-02-11T19:58:36.516Z,7.83
2018-02-11T20:01:04.145Z,8.03
2018-02-11T20:03:31.743Z,8.55
2018-02-11T20:05:59.278Z,7.97
2018-02-11T20:08:26.807Z,8.73
2018-02-11T20:10:54.325Z,9.07
2018-02-11T20:13:22.624Z,9.47
2018-02-11T20:15:50.152Z,9.27
2018-02-11T20:18:17.698Z,8.70
2018-02-11T20:20:45.236Z,8.77
2018-02-11T20:23:12.884Z,9.47
2018-02-11T20:25:40.657Z,8.60
2018-02-11T20:28:09.821Z,8.50
2018-02-11T20:30:37.348Z,8.00
2018-02-11T20:33:04.858Z,7.63
2018-02-11T20:35:32.513Z,10.05
2018-02-11T20:38:00.046Z,8.67
2018-02-11T20:40:28.359Z,8.35
2018-02-11T20:42:55.871Z,8.97
2018-02-11T20:45:24.183Z,8.97
2018-02-11T20:47:51.890Z,8.30
2018-02-11T20:50:19.432Z,8.10
2018-02-11T20:52:47.721Z,8.83
2018-02-11T20:55:15.304Z,8.80
2018-02-11T20:57:42.833Z,8.60
2018-02-11T21:00:10.393Z,7.37
2018-02-11T21:02:37.962Z,8.70
2018-02-11T21:05:05.515Z,7.73
2018-02-11T21:07:34.114Z,8.55
2018-02-11T21:10:02.563Z,8.30
2018-02-11T21:12:30.890Z,7.90
2018-02-11T21:15:00.726Z,8.20
2018-02-11T21:17:28.276Z,8.80
2018-02-11T21:19:55.949Z,9.90
2018-02-11T21:22:23.489Z,9.55
2018-02-11T21:24:51.036Z,10.03
2018-02-11T21:27:18.570Z,10.95
2018-02-11T21:29:46.108Z,8.93
2018-02-11T21:32:13.978Z,10.17
2018-02-11T21:34:41.537Z,14.60
2018-02-11T21:37:09.260Z,8.93
2018-02-11T21:39:36.780Z,9.50
2018-02-11T21:42:05.161Z,8.80
2018-02-11T21:44:32.924Z,9.33
2018-02-11T21:47:02.017Z,10.23
2018-02-11T21:49:29.531Z,9.20
2018-02-11T21:51:57.062Z,9.40
2018-02-11T21:54:24.609Z,9.50
2018-02-11T21:56:52.149Z,10.20
2018-02-11T21:59:19.684Z,9.82
2018-02-11T22:01:47.963Z,8.93
2018-02-11T22:04:15.500Z,10.90
2018-02-11T22:06:43.031Z,9.50
2018-02-11T22:09:11.349Z,9.93
2018-02-11T22:11:38.877Z,10.10
2018-02-11T22:14:06.407Z,10.47
2018-02-11T22:16:35.647Z,10.13
2018-02-11T22:19:03.464Z,9.87
2018-02-11T22:21:31.026Z,9.48
2018-02-11T22:23:58.555Z,9.33
2018-02-11T22:26:26.112Z,10.40
2018-02-11T22:28:53.664Z,11.10
2018-02-11T22:31:21.185Z,10.67
2018-02-11T22:33:48.697Z,10.50
2018-02-11T22:36:16.240Z,9.70
2018-02-11T22:38:44.529Z,10.83
2018-02-11T22:41:12.081Z,10.07
2018-02-11T22:43:39.595Z,9.23
2018-02-11T22:46:07.180Z,10.67
2018-02-11T22:48:35.620Z,9.53
2018-02-11T22:51:04.052Z,10.40
2018-02-11T22:53:32.465Z,9.57
2018-02-11T22:56:00.000Z,10.07
2018-02-11T22:58:27.541Z,9.40
2018-02-11T23:00:55.078Z,9.00
2018-02-11T23:03:22.615Z,9.60
2018-02-11T23:05:50.143Z,9.57
2018-02-11T23:08:17.697Z,9.10
2018-02-11T23:10:45.239Z,9.73
2018-02-11T23:13:13.560Z,8.83
2018-02-11T23:15:41.119Z,10.32
2018-02-11T23:18:08.644Z,9.57
2018-02-11T23:20:37.810Z,10.60
2018-02-11T23:23:05.326Z,11.43
2018-02-11T23:25:32.903Z,10.10
2018-02-11T23:28:00.444Z,10.30
2018-02-11T23:30:27.972Z,9.90
2018-02-11T23:32:55.517Z,10.40
2018-02-11T23:35:23.080Z,10.63
2018-02-11T23:37:50.615Z,10.73
2018-02-11T23:40:18.149Z,10.50
2018-02-11T23:42:45.676Z,11.35
2018-02-11T23:45:13.270Z,10.80
2018-02-11T23:47:40.815Z,10.50
2018-02-11T23:50:08.338Z,10.93
2018-02-11T23:52:36.828Z,11.00
2018-02-11T23:55:04.449Z,10.90
2018-02-11T23:57:31.990Z,11.10
2018-02-11T23:59:59.502Z,11.10
